sensor_id;sensor_type;location;lat;lon;timestamp;P1;durP1;ratioP1;P2;durP2;ratioP2
13731;SDS011;6937;56.096;12.664;2024-01-15T00:00:13;10.77;;;2.40;;
13731;SDS011;6937;56.096;12.664;2024-01-15T00:02:38;9.45;;;2.00;;
13731;SDS011;6937;56.096;12.664;2024-01-15T00:05:04;10.50;;;2.15;;
13731;SDS011;6937;56.096;12.664;2024-01-15T00:07:29;9.57;;;2.00;;
13731;SDS011;6937;56.096;12.664;2024-01-15T00:09:55;13.98;;;2.30;;
13731;SDS011;6937;56.096;12.664;2024-01-15T00:12:20;11.37;;;2.30;;
13731;SDS011;6937;56.096;12.664;2024-01-15T00:14:45;12.38;;;2.35;;
13731;SDS011;6937;56.096;12.664;2024-01-15T00:17:11;8.85;;;1.67;;
13731;SDS011;6937;56.096;12.664;2024-01-15T00:19:36;17.88;;;2.65;;
13731;SDS011;6937;56.096;12.664;2024-01-15T00:22:02;9.13;;;1.80;;
13731;SDS011;6937;56.096;12.664;2024-01-15T00:24:27;9.02;;;1.92;;
13731;SDS011;6937;56.096;12.664;2024-01-15T00:26:52;8.82;;;2.42;;
13731;SDS011;6937;56.096;12.664;2024-01-15T00:29:18;14.30;;;2.55;;
13731;SDS011;6937;56.096;12.664;2024-01-15T00:31:44;12.70;;;2.08;;
13731;SDS011;6937;56.096;12.664;2024-01-15T00:34:09;11.30;;;2.42;;
13731;SDS011;6937;56.096;12.664;2024-01-15T00:36:35;9.60;;;2.15;;
13731;SDS011;6937;56.096;12.664;2024-01-15T00:39:00;10.07;;;2.42;;
13731;SDS011;6937;56.096;12.664;2024-01-15T00:41:26;11.15;;;1.95;;
13731;SDS011;6937;56.096;12.664;2024-01-15T00:43:52;13.60;;;2.38;;
13731;SDS011;6937;56.096;12.664;2024-01-15T00:46:18;10.40;;;2.15;;
13731;SDS011;6937;56.096;12.664;2024-01-15T00:48:43;10.50;;;2.42;;
13731;SDS011;6937;56.096;12.664;2024-01-15T00:51:09;13.77;;;2.85;;
13731;SDS011;6937;56.096;12.664;2024-01-15T00:53:34;10.40;;;2.03;;
13731;SDS011;6937;56.096;12.664;2024-01-15T00:55:59;11.13;;;2.47;;
13731;SDS011;6937;56.096;12.664;2024-01-15T00:58:26;10.48;;;2.60;;
13731;SDS011;6937;56.096;12.664;2024-01-15T01:00:51;11.13;;;2.63;;
13731;SDS011;6937;56.096;12.664;2024-01-15T01:03:17;13.13;;;2.70;;
13731;SDS011;6937;56.096;12.664;2024-01-15T01:05:42;9.85;;;2.58;;
13731;SDS011;6937;56.096;12.664;2024-01-15T01:08:09;8.82;;;2.42;;
13731;SDS011;6937;56.096;12.664;2024-01-15T01:10:34;11.65;;;2.42;;
13731;SDS011;6937;56.096;12.664;2024-01-15T01:12:59;13.13;;;2.35;;
13731;SDS011;6937;56.096;12.664;2024-01-15T01:15:25;15.60;;;3.10;;
13731;SDS011;6937;56.096;12.664;2024-01-15T01:17:50;16.90;;;2.70;;
13731;SDS011;6937;56.096;12.664;2024-01-15T01:20:15;13.10;;;2.65;;
13731;SDS011;6937;56.096;12.664;2024-01-15T01:22:41;10.95;;;2.53;;
13731;SDS011;6937;56.096;12.664;2024-01-15T01:25:06;10.38;;;2.28;;
13731;SDS011;6937;56.096;12.664;2024-01-15T01:27:32;9.55;;;2.47;;
13731;SDS011;6937;56.096;12.664;2024-01-15T01:29:58;12.90;;;2.35;;
13731;SDS011;6937;56.096;12.664;2024-01-15T01:32:24;13.27;;;2.25;;
13731;SDS011;6937;56.096;12.664;2024-01-15T01:34:49;11.25;;;2.60;;
13731;SDS011;6937;56.096;12.664;2024-01-15T01:37:14;14.77;;;2.65;;
13731;SDS011;6937;56.096;12.664;2024-01-15T01:39:40;9.10;;;2.47;;
13731;SDS011;6937;56.096;12.664;2024-01-15T01:42:07;13.13;;;2.40;;
13731;SDS011;6937;56.096;12.664;2024-01-15T01:44:32;16.92;;;2.90;;
13731;SDS011;6937;56.096;12.664;2024-01-15T01:46:58;16.60;;;2.90;;
13731;SDS011;6937;56.096;12.664;2024-01-15T01:49:25;13.68;;;2.75;;
13731;SDS011;6937;56.096;12.664;2024-01-15T01:51:51;11.70;;;2.85;;
13731;SDS011;6937;56.096;12.664;2024-01-15T01:54:18;10.65;;;2.42;;
13731;SDS011;6937;56.096;12.664;2024-01-15T01:56:45;8.55;;;2.03;;
13731;SDS011;6937;56.096;12.664;2024-01-15T01:59:12;11.48;;;2.72;;
13731;SDS011;6937;56.096;12.664;2024-01-15T02:01:38;11.70;;;2.38;;
13731;SDS011;6937;56.096;12.664;2024-01-15T02:04:04;11.07;;;2.20;;
13731;SDS011;6937;56.096;12.664;2024-01-15T02:06:29;10.30;;;1.98;;
13731;SDS011;6937;56.096;12.664;2024-01-15T02:08:55;9.35;;;2.53;;
13731;SDS011;6937;56.096;12.664;2024-01-15T02:11:20;14.73;;;2.10;;
13731;SDS011;6937;56.096;12.664;2024-01-15T02:13:46;11.65;;;2.50;;
13731;SDS011;6937;56.096;12.664;2024-01-15T02:16:12;8.27;;;1.90;;
13731;SDS011;6937;56.096;12.664;2024-01-15T02:18:43;12.90;;;2.85;;
13731;SDS011;6937;56.096;12.664;2024-01-15T02:21:10;9.85;;;2.17;;
13731;SDS011;6937;56.096;12.664;2024-01-15T02:23:37;12.77;;;2.40;;
13731;SDS011;6937;56.096;12.664;2024-01-15T02:26:03;8.15;;;2.42;;
13731;SDS011;6937;56.096;12.664;2024-01-15T02:28:30;8.20;;;2.00;;
13731;SDS011;6937;56.096;12.664;2024-01-15T02:30:55;7.72;;;1.88;;
13731;SDS011;6937;56.096;12.664;2024-01-15T02:33:21;3.25;;;1.30;;
13731;SDS011;6937;56.096;12.664;2024-01-15T02:35:46;6.03;;;1.52;;
13731;SDS011;6937;56.096;12.664;2024-01-15T02:38:15;8.00;;;1.70;;
13731;SDS011;6937;56.096;12.664;2024-01-15T02:40:41;8.38;;;1.73;;
13731;SDS011;6937;56.096;12.664;2024-01-15T02:43:06;7.80;;;1.83;;
13731;SDS011;6937;56.096;12.664;2024-01-15T02:45:32;7.03;;;1.77;;
13731;SDS011;6937;56.096;12.664;2024-01-15T02:47:57;4.15;;;1.52;;
13731;SDS011;6937;56.096;12.664;2024-01-15T02:50:22;4.35;;;1.38;;
13731;SDS011;6937;56.096;12.664;2024-01-15T02:52:48;4.70;;;1.20;;
13731;SDS011;6937;56.096;12.664;2024-01-15T02:55:13;5.20;;;1.00;;
13731;SDS011;6937;56.096;12.664;2024-01-15T02:57:39;3.97;;;0.90;;
13731;SDS011;6937;56.096;12.664;2024-01-15T03:00:04;3.97;;;0.93;;
13731;SDS011;6937;56.096;12.664;2024-01-15T03:02:30;3.72;;;0.90;;
13731;SDS011;6937;56.096;12.664;2024-01-15T03:04:58;5.75;;;1.10;;
13731;SDS011;6937;56.096;12.664;2024-01-15T03:07:23;5.35;;;1.13;;
13731;SDS011;6937;56.096;12.664;2024-01-15T03:09:49;3.45;;;0.70;;
13731;SDS011;6937;56.096;12.664;2024-01-15T03:12:14;4.43;;;0.90;;
13731;SDS011;6937;56.096;12.664;2024-01-15T03:14:40;3.20;;;0.75;;
13731;SDS011;6937;56.096;12.664;2024-01-15T03:17:06;4.43;;;0.68;;
13731;SDS011;6937;56.096;12.664;2024-01-15T03:19:34;2.28;;;0.52;;
13731;SDS011;6937;56.096;12.664;2024-01-15T03:22:00;3.95;;;1.45;;
13731;SDS011;6937;56.096;12.664;2024-01-15T03:24:27;4.88;;;0.73;;
13731;SDS011;6937;56.096;12.664;2024-01-15T03:26:53;6.00;;;0.80;;
13731;SDS011;6937;56.096;12.664;2024-01-15T03:29:18;4.40;;;0.95;;
13731;SDS011;6937;56.096;12.664;2024-01-15T03:31:43;3.15;;;0.70;;
13731;SDS011;6937;56.096;12.664;2024-01-15T03:34:09;3.03;;;0.82;;
13731;SDS011;6937;56.096;12.664;2024-01-15T03:36:34;6.03;;;1.25;;
13731;SDS011;6937;56.096;12.664;2024-01-15T03:38:59;4.18;;;1.20;;
13731;SDS011;6937;56.096;12.664;2024-01-15T03:41:25;4.82;;;1.05;;
13731;SDS011;6937;56.096;12.664;2024-01-15T03:43:50;6.47;;;1.15;;
13731;SDS011;6937;56.096;12.664;2024-01-15T03:46:15;7.97;;;1.35;;
13731;SDS011;6937;56.096;12.664;2024-01-15T03:48:41;6.82;;;1.25;;
13731;SDS011;6937;56.096;12.664;2024-01-15T03:51:06;5.95;;;1.10;;
13731;SDS011;6937;56.096;12.664;2024-01-15T03:53:31;6.65;;;1.25;;
13731;SDS011;6937;56.096;12.664;2024-01-15T03:55:57;6.38;;;1.08;;
13731;SDS011;6937;56.096;12.664;2024-01-15T03:58:22;8.75;;;1.38;;
13731;SDS011;6937;56.096;12.664;2024-01-15T04:00:48;7.63;;;1.35;;
13731;SDS011;6937;56.096;12.664;2024-01-15T04:03:13;9.95;;;1.45;;
13731;SDS011;6937;56.096;12.664;2024-01-15T04:05:38;6.40;;;1.50;;
13731;SDS011;6937;56.096;12.664;2024-01-15T04:08:04;7.65;;;1.40;;
13731;SDS011;6937;56.096;12.664;2024-01-15T04:10:29;8.18;;;1.40;;
13731;SDS011;6937;56.096;12.664;2024-01-15T04:12:55;6.40;;;1.20;;
13731;SDS011;6937;56.096;12.664;2024-01-15T04:15:20;8.95;;;1.20;;
13731;SDS011;6937;56.096;12.664;2024-01-15T04:17:46;5.25;;;1.30;;
13731;SDS011;6937;56.096;12.664;2024-01-15T04:20:11;5.07;;;1.08;;
13731;SDS011;6937;56.096;12.664;2024-01-15T04:22:36;5.57;;;1.15;;
13731;SDS011;6937;56.096;12.664;2024-01-15T04:25:02;7.63;;;1.23;;
13731;SDS011;6937;56.096;12.664;2024-01-15T04:27:28;4.88;;;0.93;;
13731;SDS011;6937;56.096;12.664;2024-01-15T04:29:54;6.05;;;1.13;;
13731;SDS011;6937;56.096;12.664;2024-01-15T04:32:19;8.48;;;1.48;;
13731;SDS011;6937;56.096;12.664;2024-01-15T04:34:44;5.07;;;1.05;;
13731;SDS011;6937;56.096;12.664;2024-01-15T04:37:10;6.97;;;1.48;;
13731;SDS011;6937;56.096;12.664;2024-01-15T04:39:35;7.75;;;1.02;;
13731;SDS011;6937;56.096;12.664;2024-01-15T04:42:01;3.10;;;1.05;;
13731;SDS011;6937;56.096;12.664;2024-01-15T04:44:26;4.03;;;0.82;;
13731;SDS011;6937;56.096;12.664;2024-01-15T04:46:51;4.32;;;0.90;;
13731;SDS011;6937;56.096;12.664;2024-01-15T04:49:17;3.25;;;1.08;;
13731;SDS011;6937;56.096;12.664;2024-01-15T04:51:42;4.88;;;0.88;;
13731;SDS011;6937;56.096;12.664;2024-01-15T04:54:07;4.65;;;1.00;;
13731;SDS011;6937;56.096;12.664;2024-01-15T04:56:33;5.07;;;0.90;;
13731;SDS011;6937;56.096;12.664;2024-01-15T04:58:58;3.58;;;0.68;;
13731;SDS011;6937;56.096;12.664;2024-01-15T05:01:23;4.00;;;1.08;;
13731;SDS011;6937;56.096;12.664;2024-01-15T05:03:49;3.65;;;1.10;;
13731;SDS011;6937;56.096;12.664;2024-01-15T05:06:14;3.10;;;0.70;;
13731;SDS011;6937;56.096;12.664;2024-01-15T05:08:40;3.15;;;0.70;;
13731;SDS011;6937;56.096;12.664;2024-01-15T05:11:06;4.07;;;1.05;;
13731;SDS011;6937;56.096;12.664;2024-01-15T05:13:31;5.18;;;1.30;;
13731;SDS011;6937;56.096;12.664;2024-01-15T05:15:56;2.88;;;0.90;;
13731;SDS011;6937;56.096;12.664;2024-01-15T05:18:22;1.77;;;0.90;;
13731;SDS011;6937;56.096;12.664;2024-01-15T05:20:47;2.85;;;0.93;;
13731;SDS011;6937;56.096;12.664;2024-01-15T05:23:12;3.65;;;1.08;;
13731;SDS011;6937;56.096;12.664;2024-01-15T05:25:38;3.50;;;0.95;;
13731;SDS011;6937;56.096;12.664;2024-01-15T05:28:04;7.53;;;1.30;;
13731;SDS011;6937;56.096;12.664;2024-01-15T05:30:30;3.63;;;0.98;;
13731;SDS011;6937;56.096;12.664;2024-01-15T05:32:55;4.22;;;1.08;;
13731;SDS011;6937;56.096;12.664;2024-01-15T05:35:22;2.08;;;0.70;;
13731;SDS011;6937;56.096;12.664;2024-01-15T05:37:47;2.85;;;0.50;;
13731;SDS011;6937;56.096;12.664;2024-01-15T05:40:13;5.93;;;0.68;;
13731;SDS011;6937;56.096;12.664;2024-01-15T05:42:39;3.15;;;0.70;;
13731;SDS011;6937;56.096;12.664;2024-01-15T05:45:05;2.65;;;0.75;;
13731;SDS011;6937;56.096;12.664;2024-01-15T05:47:31;3.78;;;0.70;;
13731;SDS011;6937;56.096;12.664;2024-01-15T05:49:56;5.38;;;0.82;;
13731;SDS011;6937;56.096;12.664;2024-01-15T05:52:22;2.97;;;0.68;;
13731;SDS011;6937;56.096;12.664;2024-01-15T05:54:48;3.78;;;0.80;;
13731;SDS011;6937;56.096;12.664;2024-01-15T05:57:14;3.05;;;0.70;;
13731;SDS011;6937;56.096;12.664;2024-01-15T05:59:40;1.92;;;0.50;;
13731;SDS011;6937;56.096;12.664;2024-01-15T06:02:05;4.53;;;0.85;;
13731;SDS011;6937;56.096;12.664;2024-01-15T06:04:30;4.13;;;1.10;;
13731;SDS011;6937;56.096;12.664;2024-01-15T06:06:56;5.50;;;0.90;;
13731;SDS011;6937;56.096;12.664;2024-01-15T06:09:21;5.97;;;0.80;;
13731;SDS011;6937;56.096;12.664;2024-01-15T06:11:46;4.35;;;0.80;;
13731;SDS011;6937;56.096;12.664;2024-01-15T06:14:12;6.07;;;0.98;;
13731;SDS011;6937;56.096;12.664;2024-01-15T06:16:37;6.20;;;0.93;;
13731;SDS011;6937;56.096;12.664;2024-01-15T06:19:02;3.42;;;0.93;;
13731;SDS011;6937;56.096;12.664;2024-01-15T06:21:28;4.07;;;0.70;;
13731;SDS011;6937;56.096;12.664;2024-01-15T06:23:53;4.30;;;0.70;;
13731;SDS011;6937;56.096;12.664;2024-01-15T06:26:21;4.78;;;0.77;;
13731;SDS011;6937;56.096;12.664;2024-01-15T06:28:47;3.72;;;0.68;;
13731;SDS011;6937;56.096;12.664;2024-01-15T06:31:12;4.28;;;0.75;;
13731;SDS011;6937;56.096;12.664;2024-01-15T06:33:38;4.35;;;0.88;;
13731;SDS011;6937;56.096;12.664;2024-01-15T06:36:03;3.42;;;0.70;;
13731;SDS011;6937;56.096;12.664;2024-01-15T06:38:30;3.45;;;0.80;;
13731;SDS011;6937;56.096;12.664;2024-01-15T06:40:55;6.18;;;0.93;;
13731;SDS011;6937;56.096;12.664;2024-01-15T06:43:20;6.18;;;0.80;;
13731;SDS011;6937;56.096;12.664;2024-01-15T06:45:46;6.00;;;0.75;;
13731;SDS011;6937;56.096;12.664;2024-01-15T06:48:11;2.25;;;0.73;;
13731;SDS011;6937;56.096;12.664;2024-01-15T06:50:41;3.67;;;1.00;;
13731;SDS011;6937;56.096;12.664;2024-01-15T06:53:07;3.92;;;0.60;;
13731;SDS011;6937;56.096;12.664;2024-01-15T06:55:32;3.63;;;0.88;;
13731;SDS011;6937;56.096;12.664;2024-01-15T06:57:58;2.97;;;0.80;;
13731;SDS011;6937;56.096;12.664;2024-01-15T07:00:23;4.20;;;0.77;;
13731;SDS011;6937;56.096;12.664;2024-01-15T07:02:48;5.18;;;1.20;;
13731;SDS011;6937;56.096;12.664;2024-01-15T07:05:14;7.55;;;1.50;;
13731;SDS011;6937;56.096;12.664;2024-01-15T07:07:40;8.95;;;1.30;;
13731;SDS011;6937;56.096;12.664;2024-01-15T07:10:06;5.55;;;1.30;;
13731;SDS011;6937;56.096;12.664;2024-01-15T07:12:31;8.13;;;1.38;;
13731;SDS011;6937;56.096;12.664;2024-01-15T07:14:57;4.63;;;0.98;;
13731;SDS011;6937;56.096;12.664;2024-01-15T07:17:23;7.65;;;1.50;;
13731;SDS011;6937;56.096;12.664;2024-01-15T07:19:48;7.18;;;1.30;;
13731;SDS011;6937;56.096;12.664;2024-01-15T07:22:14;3.63;;;1.27;;
13731;SDS011;6937;56.096;12.664;2024-01-15T07:24:42;5.53;;;1.30;;
13731;SDS011;6937;56.096;12.664;2024-01-15T07:27:08;6.40;;;1.40;;
13731;SDS011;6937;56.096;12.664;2024-01-15T07:29:34;6.03;;;1.10;;
13731;SDS011;6937;56.096;12.664;2024-01-15T07:32:01;6.28;;;1.15;;
13731;SDS011;6937;56.096;12.664;2024-01-15T07:34:27;3.15;;;1.00;;
13731;SDS011;6937;56.096;12.664;2024-01-15T07:36:52;4.50;;;1.20;;
13731;SDS011;6937;56.096;12.664;2024-01-15T07:39:17;4.38;;;1.15;;
13731;SDS011;6937;56.096;12.664;2024-01-15T07:41:43;6.90;;;1.30;;
13731;SDS011;6937;56.096;12.664;2024-01-15T07:44:10;4.10;;;0.95;;
13731;SDS011;6937;56.096;12.664;2024-01-15T07:46:36;3.47;;;1.08;;
13731;SDS011;6937;56.096;12.664;2024-01-15T07:49:01;7.13;;;1.20;;
13731;SDS011;6937;56.096;12.664;2024-01-15T07:51:26;7.00;;;1.27;;
13731;SDS011;6937;56.096;12.664;2024-01-15T07:53:53;3.25;;;1.08;;
13731;SDS011;6937;56.096;12.664;2024-01-15T07:56:19;5.03;;;1.60;;
13731;SDS011;6937;56.096;12.664;2024-01-15T07:58:46;4.47;;;1.55;;
13731;SDS011;6937;56.096;12.664;2024-01-15T08:01:12;3.63;;;1.52;;
13731;SDS011;6937;56.096;12.664;2024-01-15T08:03:37;5.53;;;1.52;;
13731;SDS011;6937;56.096;12.664;2024-01-15T08:06:02;6.55;;;2.00;;
13731;SDS011;6937;56.096;12.664;2024-01-15T08:08:28;3.08;;;1.52;;
13731;SDS011;6937;56.096;12.664;2024-01-15T08:10:53;5.05;;;2.03;;
13731;SDS011;6937;56.096;12.664;2024-01-15T08:13:19;4.32;;;2.00;;
13731;SDS011;6937;56.096;12.664;2024-01-15T08:15:45;3.13;;;1.60;;
13731;SDS011;6937;56.096;12.664;2024-01-15T08:18:10;5.68;;;1.58;;
13731;SDS011;6937;56.096;12.664;2024-01-15T08:20:36;5.53;;;1.55;;
13731;SDS011;6937;56.096;12.664;2024-01-15T08:23:02;4.00;;;1.13;;
13731;SDS011;6937;56.096;12.664;2024-01-15T08:25:28;1.23;;;0.50;;
13731;SDS011;6937;56.096;12.664;2024-01-15T08:27:53;1.65;;;0.50;;
13731;SDS011;6937;56.096;12.664;2024-01-15T08:30:18;0.80;;;0.50;;
13731;SDS011;6937;56.096;12.664;2024-01-15T08:32:45;1.65;;;0.52;;
13731;SDS011;6937;56.096;12.664;2024-01-15T08:35:10;0.53;;;0.20;;
13731;SDS011;6937;56.096;12.664;2024-01-15T08:37:36;0.25;;;0.20;;
13731;SDS011;6937;56.096;12.664;2024-01-15T08:40:03;1.30;;;0.30;;
13731;SDS011;6937;56.096;12.664;2024-01-15T08:42:28;0.70;;;0.25;;
13731;SDS011;6937;56.096;12.664;2024-01-15T08:44:54;0.70;;;0.27;;
13731;SDS011;6937;56.096;12.664;2024-01-15T08:47:19;0.60;;;0.20;;
13731;SDS011;6937;56.096;12.664;2024-01-15T08:49:45;0.95;;;0.22;;
13731;SDS011;6937;56.096;12.664;2024-01-15T08:52:11;0.88;;;0.45;;
13731;SDS011;6937;56.096;12.664;2024-01-15T08:54:37;0.85;;;0.40;;
13731;SDS011;6937;56.096;12.664;2024-01-15T08:57:02;2.45;;;0.50;;
13731;SDS011;6937;56.096;12.664;2024-01-15T08:59:28;1.77;;;0.30;;
13731;SDS011;6937;56.096;12.664;2024-01-15T09:01:53;1.07;;;0.40;;
13731;SDS011;6937;56.096;12.664;2024-01-15T09:04:19;1.57;;;0.30;;
13731;SDS011;6937;56.096;12.664;2024-01-15T09:06:45;0.83;;;0.30;;
13731;SDS011;6937;56.096;12.664;2024-01-15T09:09:12;1.07;;;0.20;;
13731;SDS011;6937;56.096;12.664;2024-01-15T09:11:39;0.57;;;0.43;;
13731;SDS011;6937;56.096;12.664;2024-01-15T09:14:04;1.90;;;0.50;;
13731;SDS011;6937;56.096;12.664;2024-01-15T09:16:29;0.97;;;0.20;;
13731;SDS011;6937;56.096;12.664;2024-01-15T09:18:55;1.53;;;0.13;;
13731;SDS011;6937;56.096;12.664;2024-01-15T09:21:22;0.87;;;0.20;;
13731;SDS011;6937;56.096;12.664;2024-01-15T09:23:49;1.97;;;0.50;;
13731;SDS011;6937;56.096;12.664;2024-01-15T09:26:15;0.85;;;0.30;;
13731;SDS011;6937;56.096;12.664;2024-01-15T09:28:40;1.13;;;0.20;;
13731;SDS011;6937;56.096;12.664;2024-01-15T09:31:05;1.63;;;0.30;;
13731;SDS011;6937;56.096;12.664;2024-01-15T09:33:31;0.47;;;0.20;;
13731;SDS011;6937;56.096;12.664;2024-01-15T09:35:56;1.30;;;0.20;;
13731;SDS011;6937;56.096;12.664;2024-01-15T09:38:22;0.45;;;0.22;;
13731;SDS011;6937;56.096;12.664;2024-01-15T09:40:49;1.25;;;0.30;;
13731;SDS011;6937;56.096;12.664;2024-01-15T09:43:15;1.13;;;0.20;;
13731;SDS011;6937;56.096;12.664;2024-01-15T09:45:41;1.85;;;0.20;;
13731;SDS011;6937;56.096;12.664;2024-01-15T09:48:07;0.65;;;0.20;;
13731;SDS011;6937;56.096;12.664;2024-01-15T09:50:33;0.50;;;0.20;;
13731;SDS011;6937;56.096;12.664;2024-01-15T09:52:58;0.30;;;0.10;;
13731;SDS011;6937;56.096;12.664;2024-01-15T09:55:25;1.60;;;0.38;;
13731;SDS011;6937;56.096;12.664;2024-01-15T09:57:51;0.45;;;0.15;;
13731;SDS011;6937;56.096;12.664;2024-01-15T10:00:18;1.80;;;0.20;;
13731;SDS011;6937;56.096;12.664;2024-01-15T10:02:44;0.38;;;0.20;;
13731;SDS011;6937;56.096;12.664;2024-01-15T10:05:09;0.43;;;0.25;;
13731;SDS011;6937;56.096;12.664;2024-01-15T10:07:35;1.17;;;1.07;;
13731;SDS011;6937;56.096;12.664;2024-01-15T10:10:02;0.85;;;0.32;;
13731;SDS011;6937;56.096;12.664;2024-01-15T10:12:28;1.60;;;0.30;;
13731;SDS011;6937;56.096;12.664;2024-01-15T10:14:55;0.80;;;0.30;;
13731;SDS011;6937;56.096;12.664;2024-01-15T10:17:21;0.93;;;0.30;;
13731;SDS011;6937;56.096;12.664;2024-01-15T10:19:46;1.67;;;0.40;;
13731;SDS011;6937;56.096;12.664;2024-01-15T10:22:13;0.80;;;0.50;;
13731;SDS011;6937;56.096;12.664;2024-01-15T10:24:42;1.80;;;0.50;;
13731;SDS011;6937;56.096;12.664;2024-01-15T10:27:09;1.37;;;0.40;;
13731;SDS011;6937;56.096;12.664;2024-01-15T10:29:35;1.27;;;0.30;;
13731;SDS011;6937;56.096;12.664;2024-01-15T10:32:01;1.33;;;0.47;;
13731;SDS011;6937;56.096;12.664;2024-01-15T10:34:27;0.52;;;0.38;;
13731;SDS011;6937;56.096;12.664;2024-01-15T10:36:53;1.37;;;0.33;;
13731;SDS011;6937;56.096;12.664;2024-01-15T10:39:22;0.70;;;0.40;;
13731;SDS011;6937;56.096;12.664;2024-01-15T10:41:49;0.83;;;0.30;;
13731;SDS011;6937;56.096;12.664;2024-01-15T10:44:15;0.82;;;0.22;;
13731;SDS011;6937;56.096;12.664;2024-01-15T10:46:45;0.90;;;0.20;;
13731;SDS011;6937;56.096;12.664;2024-01-15T10:49:11;1.73;;;0.40;;
13731;SDS011;6937;56.096;12.664;2024-01-15T10:51:36;1.35;;;0.47;;
13731;SDS011;6937;56.096;12.664;2024-01-15T10:54:02;0.90;;;0.20;;
13731;SDS011;6937;56.096;12.664;2024-01-15T10:56:28;1.85;;;0.50;;
13731;SDS011;6937;56.096;12.664;2024-01-15T10:58:56;0.95;;;0.30;;
13731;SDS011;6937;56.096;12.664;2024-01-15T11:01:22;1.27;;;0.22;;
13731;SDS011;6937;56.096;12.664;2024-01-15T11:03:48;1.70;;;0.40;;
13731;SDS011;6937;56.096;12.664;2024-01-15T11:06:18;0.65;;;0.28;;
13731;SDS011;6937;56.096;12.664;2024-01-15T11:08:45;3.17;;;0.40;;
13731;SDS011;6937;56.096;12.664;2024-01-15T11:11:15;0.23;;;0.20;;
13731;SDS011;6937;56.096;12.664;2024-01-15T11:13:41;1.53;;;0.30;;
13731;SDS011;6937;56.096;12.664;2024-01-15T11:16:10;0.40;;;0.30;;
13731;SDS011;6937;56.096;12.664;2024-01-15T11:18:38;0.30;;;0.30;;
13731;SDS011;6937;56.096;12.664;2024-01-15T11:23:44;1.07;;;0.30;;
13731;SDS011;6937;56.096;12.664;2024-01-15T11:28:59;1.90;;;0.40;;
13731;SDS011;6937;56.096;12.664;2024-01-15T11:31:29;1.17;;;0.33;;
13731;SDS011;6937;56.096;12.664;2024-01-15T11:34:14;0.50;;;0.30;;
13731;SDS011;6937;56.096;12.664;2024-01-15T11:41:51;1.98;;;0.47;;
13731;SDS011;6937;56.096;12.664;2024-01-15T11:44:17;1.17;;;0.40;;
13731;SDS011;6937;56.096;12.664;2024-01-15T11:46:43;2.33;;;0.40;;
13731;SDS011;6937;56.096;12.664;2024-01-15T11:52:31;1.97;;;0.20;;
13731;SDS011;6937;56.096;12.664;2024-01-15T11:55:10;0.47;;;0.22;;
13731;SDS011;6937;56.096;12.664;2024-01-15T11:57:50;2.83;;;0.30;;
13731;SDS011;6937;56.096;12.664;2024-01-15T12:00:19;0.90;;;0.40;;
13731;SDS011;6937;56.096;12.664;2024-01-15T12:02:46;1.42;;;0.50;;
13731;SDS011;6937;56.096;12.664;2024-01-15T12:05:13;0.75;;;0.30;;
13731;SDS011;6937;56.096;12.664;2024-01-15T12:07:40;0.83;;;0.20;;
13731;SDS011;6937;56.096;12.664;2024-01-15T12:10:12;0.95;;;0.40;;
13731;SDS011;6937;56.096;12.664;2024-01-15T12:15:24;1.63;;;0.30;;
13731;SDS011;6937;56.096;12.664;2024-01-15T12:17:50;1.10;;;0.30;;
13731;SDS011;6937;56.096;12.664;2024-01-15T12:20:16;0.87;;;0.30;;
13731;SDS011;6937;56.096;12.664;2024-01-15T12:22:43;1.58;;;0.60;;
13731;SDS011;6937;56.096;12.664;2024-01-15T12:25:08;1.00;;;0.32;;
13731;SDS011;6937;56.096;12.664;2024-01-15T12:27:34;0.40;;;0.30;;
13731;SDS011;6937;56.096;12.664;2024-01-15T12:30:00;2.10;;;0.60;;
13731;SDS011;6937;56.096;12.664;2024-01-15T12:32:25;1.07;;;0.40;;
13731;SDS011;6937;56.096;12.664;2024-01-15T12:34:50;0.67;;;0.37;;
13731;SDS011;6937;56.096;12.664;2024-01-15T12:37:19;0.50;;;0.17;;
13731;SDS011;6937;56.096;12.664;2024-01-15T12:39:45;1.60;;;0.40;;
13731;SDS011;6937;56.096;12.664;2024-01-15T12:42:11;2.13;;;0.38;;
13731;SDS011;6937;56.096;12.664;2024-01-15T12:44:37;0.50;;;0.30;;
13731;SDS011;6937;56.096;12.664;2024-01-15T12:47:04;1.63;;;0.40;;
13731;SDS011;6937;56.096;12.664;2024-01-15T12:49:30;0.73;;;0.40;;
13731;SDS011;6937;56.096;12.664;2024-01-15T12:51:58;3.22;;;0.60;;
13731;SDS011;6937;56.096;12.664;2024-01-15T12:54:25;0.85;;;0.43;;
13731;SDS011;6937;56.096;12.664;2024-01-15T12:56:51;0.98;;;0.40;;
13731;SDS011;6937;56.096;12.664;2024-01-15T12:59:16;0.45;;;0.40;;
13731;SDS011;6937;56.096;12.664;2024-01-15T13:01:43;1.40;;;0.40;;
13731;SDS011;6937;56.096;12.664;2024-01-15T13:04:09;0.63;;;0.30;;
13731;SDS011;6937;56.096;12.664;2024-01-15T13:06:34;1.10;;;0.40;;
13731;SDS011;6937;56.096;12.664;2024-01-15T13:09:00;1.35;;;0.40;;
13731;SDS011;6937;56.096;12.664;2024-01-15T13:11:26;0.73;;;0.30;;
13731;SDS011;6937;56.096;12.664;2024-01-15T13:13:52;0.55;;;0.30;;
13731;SDS011;6937;56.096;12.664;2024-01-15T13:16:17;1.50;;;0.40;;
13731;SDS011;6937;56.096;12.664;2024-01-15T13:18:45;1.70;;;0.30;;
13731;SDS011;6937;56.096;12.664;2024-01-15T13:21:11;1.90;;;0.50;;
13731;SDS011;6937;56.096;12.664;2024-01-15T13:23:37;0.55;;;0.25;;
13731;SDS011;6937;56.096;12.664;2024-01-15T13:26:05;0.82;;;0.30;;
13731;SDS011;6937;56.096;12.664;2024-01-15T13:28:32;0.65;;;0.30;;
13731;SDS011;6937;56.096;12.664;2024-01-15T13:30:57;1.13;;;0.30;;
13731;SDS011;6937;56.096;12.664;2024-01-15T13:33:23;1.63;;;0.50;;
13731;SDS011;6937;56.096;12.664;2024-01-15T13:35:48;0.90;;;0.50;;
13731;SDS011;6937;56.096;12.664;2024-01-15T13:38:16;0.85;;;0.30;;
13731;SDS011;6937;56.096;12.664;2024-01-15T13:40:41;2.15;;;0.50;;
13731;SDS011;6937;56.096;12.664;2024-01-15T13:43:07;0.55;;;0.30;;
13731;SDS011;6937;56.096;12.664;2024-01-15T13:45:36;0.50;;;0.30;;
13731;SDS011;6937;56.096;12.664;2024-01-15T13:48:02;1.48;;;0.40;;
13731;SDS011;6937;56.096;12.664;2024-01-15T13:50:30;1.05;;;0.30;;
13731;SDS011;6937;56.096;12.664;2024-01-15T13:52:56;2.95;;;0.40;;
13731;SDS011;6937;56.096;12.664;2024-01-15T13:55:21;2.10;;;0.47;;
13731;SDS011;6937;56.096;12.664;2024-01-15T13:57:47;0.47;;;0.30;;
13731;SDS011;6937;56.096;12.664;2024-01-15T14:00:12;1.95;;;0.40;;
13731;SDS011;6937;56.096;12.664;2024-01-15T14:02:43;1.08;;;0.30;;
13731;SDS011;6937;56.096;12.664;2024-01-15T14:05:09;0.65;;;0.30;;
13731;SDS011;6937;56.096;12.664;2024-01-15T14:07:34;1.05;;;0.30;;
13731;SDS011;6937;56.096;12.664;2024-01-15T14:09:59;2.47;;;0.52;;
13731;SDS011;6937;56.096;12.664;2024-01-15T14:12:25;0.77;;;0.30;;
13731;SDS011;6937;56.096;12.664;2024-01-15T14:14:51;3.50;;;0.40;;
13731;SDS011;6937;56.096;12.664;2024-01-15T14:17:17;0.38;;;0.30;;
13731;SDS011;6937;56.096;12.664;2024-01-15T14:19:42;0.30;;;0.23;;
13731;SDS011;6937;56.096;12.664;2024-01-15T14:22:08;1.67;;;0.40;;
13731;SDS011;6937;56.096;12.664;2024-01-15T14:24:33;0.95;;;0.30;;
13731;SDS011;6937;56.096;12.664;2024-01-15T14:26:59;0.87;;;0.40;;
13731;SDS011;6937;56.096;12.664;2024-01-15T14:29:24;2.10;;;0.40;;
13731;SDS011;6937;56.096;12.664;2024-01-15T14:31:51;0.40;;;0.40;;
13731;SDS011;6937;56.096;12.664;2024-01-15T14:34:17;0.50;;;0.30;;
13731;SDS011;6937;56.096;12.664;2024-01-15T14:36:43;1.00;;;0.20;;
13731;SDS011;6937;56.096;12.664;2024-01-15T14:39:08;1.60;;;0.20;;
13731;SDS011;6937;56.096;12.664;2024-01-15T14:41:34;1.60;;;0.70;;
13731;SDS011;6937;56.096;12.664;2024-01-15T14:44:00;0.90;;;0.33;;
13731;SDS011;6937;56.096;12.664;2024-01-15T14:46:25;1.47;;;0.30;;
13731;SDS011;6937;56.096;12.664;2024-01-15T14:48:52;0.73;;;0.30;;
13731;SDS011;6937;56.096;12.664;2024-01-15T14:51:18;0.90;;;0.23;;
13731;SDS011;6937;56.096;12.664;2024-01-15T14:53:43;1.90;;;0.30;;